Richvale, Pennsylvania
Current Conditions -  °F | °C
As of 7:53 AM on Thursday 30 Oct 2014 (Local Time) from KAOO Reporting Station
Overcast Overcast  
Wind Chill: 40°   Ceiling: 2300
Heat Index: 44°   Visibility: 10mi
Dew Point: 37°   Wind: 7mph
Humidity: 76%   Direction: 310°NW
Pressure: 30.05"   Gusts: NA
Location:  40.2561°N, 77.7747°W
Report Text: KAOO 301153Z AUTO 31006KT 10SM OVC023 07/03 A3005 RMK AO2 SLP179 70001 T00670028 10078 20056 53006
Loading
Personal Weather Stations






























Interactive Weather Map
Tropical Storm Tracking
New forecast layout! Learn more

10-Day Weather Forecast

Advertisements
Track Severe Weather on mobile